createdAt,value
2019-04-07T00:01:48.679Z,22.10
2019-04-07T00:04:18.160Z,22.20
2019-04-07T00:06:47.675Z,22.73
2019-04-07T00:09:17.656Z,22.60
2019-04-07T00:11:46.941Z,23.20
2019-04-07T00:14:16.734Z,20.67
2019-04-07T00:16:45.994Z,22.33
2019-04-07T00:19:15.668Z,20.83
2019-04-07T00:21:45.557Z,21.27
2019-04-07T00:24:15.049Z,20.00
2019-04-07T00:26:44.809Z,21.67
2019-04-07T00:29:14.461Z,22.20
2019-04-07T00:31:43.703Z,19.07
2019-04-07T00:34:12.893Z,21.40
2019-04-07T00:36:42.130Z,20.07
2019-04-07T00:39:11.496Z,20.50
2019-04-07T00:41:40.656Z,21.13
2019-04-07T00:44:10.005Z,22.07
2019-04-07T00:46:39.794Z,21.63
2019-04-07T00:49:09.483Z,20.67
2019-04-07T00:51:38.757Z,18.63
2019-04-07T00:54:08.437Z,20.97
2019-04-07T00:56:37.690Z,19.10
2019-04-07T00:59:06.852Z,18.73
2019-04-07T01:01:36.070Z,19.37
2019-04-07T01:04:05.659Z,19.00
2019-04-07T01:06:34.892Z,17.90
2019-04-07T01:09:05.124Z,18.77
2019-04-07T01:11:34.535Z,18.83
2019-04-07T01:14:03.727Z,18.87
2019-04-07T01:16:32.943Z,17.27
2019-04-07T01:19:02.434Z,16.97
2019-04-07T01:21:31.589Z,17.63
2019-04-07T01:24:00.838Z,17.20
2019-04-07T01:26:30.005Z,17.13
2019-04-07T01:28:59.289Z,16.83
2019-04-07T01:31:28.610Z,16.67
2019-04-07T01:33:58.685Z,18.00
2019-04-07T01:36:27.996Z,17.93
2019-04-07T01:38:57.549Z,17.10
2019-04-07T01:41:46.325Z,18.40
2019-04-07T01:44:40.961Z,17.43
2019-04-07T01:47:32.101Z,16.30
2019-04-07T01:50:21.092Z,17.60
2019-04-07T01:53:09.163Z,16.13
2019-04-07T01:55:54.196Z,18.10
2019-04-07T01:58:54.370Z,17.47
2019-04-07T02:01:45.266Z,16.30
2019-04-07T02:04:32.520Z,16.57
2019-04-07T02:07:20.626Z,16.37
2019-04-07T02:10:13.638Z,16.67
2019-04-07T02:12:58.261Z,17.33
2019-04-07T02:15:59.097Z,22.20
2019-04-07T02:18:56.359Z,20.13
2019-04-07T02:21:33.774Z,17.40
2019-04-07T02:24:30.921Z,17.47
2019-04-07T02:27:25.647Z,19.03
2019-04-07T02:30:19.988Z,15.33
2019-04-07T02:33:02.396Z,16.77
2019-04-07T02:35:53.617Z,17.20
2019-04-07T02:38:31.660Z,15.67
2019-04-07T02:41:32.496Z,16.87
2019-04-07T02:44:23.907Z,16.27
2019-04-07T02:47:00.790Z,15.53
2019-04-07T02:49:54.856Z,15.13
2019-04-07T02:52:35.701Z,16.43
2019-04-07T02:55:24.437Z,15.93
2019-04-07T02:58:15.814Z,14.87
2019-04-07T03:01:07.035Z,16.87
2019-04-07T03:03:42.890Z,14.87
2019-04-07T03:06:34.621Z,16.73
2019-04-07T03:09:07.647Z,15.03
2019-04-07T03:12:02.865Z,14.67
2019-04-07T03:14:53.016Z,15.63
2019-04-07T03:17:37.470Z,15.87
2019-04-07T03:20:25.194Z,14.77
2019-04-07T03:23:12.904Z,15.27
2019-04-07T03:26:02.276Z,16.20
2019-04-07T03:28:47.540Z,15.23
2019-04-07T03:31:39.420Z,14.60
2019-04-07T03:34:33.494Z,15.33
2019-04-07T03:37:33.332Z,15.93
2019-04-07T03:40:08.850Z,16.73
2019-04-07T03:42:51.645Z,16.70
2019-04-07T03:45:49.933Z,17.23
2019-04-07T03:48:32.772Z,18.33
2019-04-07T03:51:13.872Z,17.97
2019-04-07T03:54:21.114Z,17.53
2019-04-07T03:57:15.109Z,17.97
2019-04-07T04:00:12.576Z,17.57
2019-04-07T04:02:57.248Z,17.27
2019-04-07T04:05:57.422Z,16.17
2019-04-07T04:08:44.375Z,15.87
2019-04-07T04:11:36.155Z,14.97
2019-04-07T04:14:13.374Z,15.60
2019-04-07T04:16:45.808Z,15.53
2019-04-07T04:19:15.018Z,16.60
2019-04-07T04:21:44.544Z,15.90
2019-04-07T04:24:14.378Z,17.27
2019-04-07T04:26:44.097Z,17.23
2019-04-07T04:29:13.432Z,14.70
2019-04-07T04:31:43.430Z,15.93
2019-04-07T04:34:12.604Z,15.20
2019-04-07T04:36:41.863Z,14.50
2019-04-07T04:39:12.046Z,15.93
2019-04-07T04:41:42.585Z,15.70
2019-04-07T04:44:12.276Z,16.20
2019-04-07T04:46:42.620Z,15.53
2019-04-07T04:49:11.946Z,16.90
2019-04-07T04:51:42.441Z,16.40
2019-04-07T04:54:12.608Z,17.20
2019-04-07T04:56:42.411Z,16.87
2019-04-07T04:59:12.859Z,17.83
2019-04-07T05:01:42.301Z,18.03
2019-04-07T05:04:11.532Z,19.23
2019-04-07T05:06:41.310Z,18.30
2019-04-07T05:09:10.562Z,20.27
2019-04-07T05:11:39.793Z,16.97
2019-04-07T05:14:09.017Z,18.00
2019-04-07T05:16:38.833Z,17.83
2019-04-07T05:19:08.750Z,18.90
2019-04-07T05:21:37.916Z,19.27
2019-04-07T05:24:07.094Z,19.33
2019-04-07T05:26:36.587Z,19.30
2019-04-07T05:29:06.018Z,18.73
2019-04-07T05:31:37.048Z,17.27
2019-04-07T05:34:06.657Z,18.97
2019-04-07T05:36:35.946Z,18.00
2019-04-07T05:39:07.476Z,17.33
2019-04-07T05:41:37.223Z,16.67
2019-04-07T05:44:07.710Z,16.00
2019-04-07T05:46:40.145Z,16.93
2019-04-07T05:49:07.811Z,20.37
2019-04-07T05:51:37.116Z,19.80
2019-04-07T05:54:07.055Z,18.87
2019-04-07T05:56:36.895Z,18.93
2019-04-07T05:59:09.968Z,18.60
2019-04-07T06:01:37.135Z,18.90
2019-04-07T06:04:06.708Z,17.53
2019-04-07T06:06:37.034Z,17.47
2019-04-07T06:09:08.341Z,20.07
2019-04-07T06:11:41.174Z,17.40
2019-04-07T06:14:11.533Z,18.00
2019-04-07T06:16:42.808Z,17.87
2019-04-07T06:19:12.581Z,16.43
2019-04-07T06:21:46.132Z,17.53
2019-04-07T06:24:13.522Z,17.80
2019-04-07T06:26:47.644Z,17.97
2019-04-07T06:29:13.920Z,18.07
2019-04-07T06:31:43.580Z,17.80
2019-04-07T06:34:12.816Z,17.77
2019-04-07T06:36:43.033Z,18.07
2019-04-07T06:39:13.560Z,18.07
2019-04-07T06:41:43.319Z,17.07
2019-04-07T06:44:16.551Z,18.27
2019-04-07T06:47:05.184Z,17.10
2019-04-07T06:49:56.393Z,16.80
2019-04-07T06:52:41.793Z,17.93
2019-04-07T06:55:32.709Z,19.73
2019-04-07T06:58:32.106Z,44.43
2019-04-07T07:01:20.270Z,17.73
2019-04-07T07:04:13.159Z,17.10
2019-04-07T07:07:00.628Z,18.60
2019-04-07T07:09:54.810Z,24.83
2019-04-07T07:12:50.714Z,17.53
2019-04-07T07:15:38.507Z,18.00
2019-04-07T07:18:32.318Z,15.60
2019-04-07T07:21:24.547Z,13.60
2019-04-07T07:23:53.987Z,13.17
2019-04-07T07:26:24.497Z,13.20
2019-04-07T07:28:54.324Z,12.93
2019-04-07T07:31:25.475Z,13.30
2019-04-07T07:33:54.911Z,12.10
2019-04-07T07:36:24.208Z,12.33
2019-04-07T07:38:59.193Z,12.40
2019-04-07T07:41:25.373Z,12.50
2019-04-07T07:43:54.966Z,12.57
2019-04-07T07:46:25.733Z,11.70
2019-04-07T07:48:59.000Z,10.40
2019-04-07T07:51:26.755Z,10.90
2019-04-07T07:53:58.573Z,9.90
2019-04-07T07:56:26.920Z,10.50
2019-04-07T07:59:00.861Z,10.10
2019-04-07T08:01:29.934Z,8.27
2019-04-07T08:03:59.742Z,8.67
2019-04-07T08:06:29.472Z,7.83
2019-04-07T08:09:09.950Z,7.50
2019-04-07T08:11:31.533Z,6.77
2019-04-07T08:14:01.249Z,6.70
2019-04-07T08:16:31.511Z,6.33
2019-04-07T08:19:01.501Z,6.57
2019-04-07T08:21:31.584Z,6.60
2019-04-07T08:24:01.426Z,6.37
2019-04-07T08:26:31.729Z,6.70
2019-04-07T08:29:03.252Z,7.60
2019-04-07T08:31:32.688Z,5.90
2019-04-07T08:34:02.347Z,6.00
2019-04-07T08:36:31.577Z,6.67
2019-04-07T08:39:00.766Z,6.33
2019-04-07T08:41:33.473Z,5.87
2019-04-07T08:44:02.958Z,5.50
2019-04-07T08:46:39.426Z,5.93
2019-04-07T08:49:03.811Z,5.70
2019-04-07T08:51:33.655Z,5.55
2019-04-07T08:54:04.536Z,6.35
2019-04-07T08:56:34.157Z,5.87
2019-04-07T08:59:03.875Z,5.37
2019-04-07T09:01:33.130Z,6.40
2019-04-07T09:04:02.293Z,6.35
2019-04-07T09:06:31.620Z,6.15
2019-04-07T09:09:01.501Z,6.15
2019-04-07T09:11:32.107Z,6.12
2019-04-07T09:14:02.130Z,6.58
2019-04-07T09:16:37.018Z,5.70
2019-04-07T09:19:21.352Z,5.92
2019-04-07T09:22:10.539Z,5.90
2019-04-07T09:25:18.193Z,6.22
2019-04-07T09:28:10.062Z,6.45
2019-04-07T09:30:53.645Z,5.92
2019-04-07T09:33:48.934Z,6.25
2019-04-07T09:36:34.213Z,5.83
2019-04-07T09:39:23.991Z,6.08
2019-04-07T09:42:15.894Z,6.70
2019-04-07T09:45:09.753Z,6.33
2019-04-07T09:48:04.912Z,7.03
2019-04-07T09:51:04.157Z,7.00
2019-04-07T09:53:43.832Z,7.40
2019-04-07T09:56:27.242Z,7.90
2019-04-07T09:59:19.065Z,7.17
2019-04-07T10:02:06.289Z,7.22
2019-04-07T10:05:00.555Z,6.70
2019-04-07T10:07:45.746Z,7.95
2019-04-07T10:10:28.239Z,6.95
2019-04-07T10:13:05.502Z,7.22
2019-04-07T10:15:57.405Z,6.90
2019-04-07T10:18:46.006Z,7.60
2019-04-07T10:21:32.864Z,7.30
2019-04-07T10:24:27.298Z,7.80
2019-04-07T10:27:18.780Z,7.72
2019-04-07T10:29:54.589Z,6.90
2019-04-07T10:32:35.605Z,6.85
2019-04-07T10:35:24.138Z,6.70
2019-04-07T10:38:16.221Z,7.22
2019-04-07T10:41:19.494Z,7.47
2019-04-07T10:44:00.050Z,6.58
2019-04-07T10:47:00.449Z,5.72
2019-04-07T10:49:59.281Z,4.00
2019-04-07T10:52:33.938Z,3.80
2019-04-07T10:55:35.133Z,4.22
2019-04-07T10:58:18.911Z,4.10
2019-04-07T11:01:06.437Z,4.35
2019-04-07T11:03:54.848Z,3.90
2019-04-07T11:06:43.955Z,4.20
2019-04-07T11:09:31.989Z,3.98
2019-04-07T11:12:18.756Z,3.67
2019-04-07T11:15:25.900Z,4.10
2019-04-07T11:18:13.630Z,4.80
2019-04-07T11:20:58.717Z,4.45
2019-04-07T11:23:41.843Z,4.10
2019-04-07T11:26:48.563Z,4.40
2019-04-07T11:29:45.605Z,4.40
2019-04-07T11:32:35.823Z,5.05
2019-04-07T11:35:13.756Z,3.85
2019-04-07T11:38:02.702Z,3.67
2019-04-07T11:40:50.176Z,3.92
2019-04-07T11:43:44.449Z,3.90
2019-04-07T11:46:19.826Z,3.83
2019-04-07T11:49:10.814Z,13.68
2019-04-07T11:51:46.941Z,5.40
2019-04-07T11:54:36.963Z,4.53
2019-04-07T11:57:31.228Z,4.65
2019-04-07T12:00:19.564Z,6.78
2019-04-07T12:03:05.283Z,4.35
2019-04-07T12:05:57.985Z,5.20
2019-04-07T12:09:02.159Z,3.98
2019-04-07T12:11:49.401Z,4.42
2019-04-07T12:14:52.091Z,4.60
2019-04-07T12:17:45.921Z,4.87
2019-04-07T12:20:35.425Z,4.65
2019-04-07T12:23:23.357Z,5.10
2019-04-07T12:26:04.422Z,5.20
2019-04-07T12:28:56.089Z,4.67
2019-04-07T12:31:40.400Z,4.97
2019-04-07T12:34:34.664Z,5.70
2019-04-07T12:37:17.495Z,6.50
2019-04-07T12:40:05.424Z,5.35
2019-04-07T12:42:53.431Z,4.72
2019-04-07T12:45:39.168Z,4.58
2019-04-07T12:48:37.895Z,4.10
2019-04-07T12:51:24.786Z,4.25
2019-04-07T12:54:05.332Z,4.67
2019-04-07T12:56:44.562Z,5.25
2019-04-07T12:59:37.513Z,5.87
2019-04-07T13:02:20.068Z,4.78
2019-04-07T13:05:00.414Z,5.42
2019-04-07T13:07:53.161Z,4.45
2019-04-07T13:10:47.270Z,3.90
2019-04-07T13:13:40.689Z,4.03
2019-04-07T13:16:48.037Z,4.10
2019-04-07T13:19:41.819Z,3.98
2019-04-07T13:22:19.277Z,4.03
2019-04-07T13:25:06.402Z,3.80
2019-04-07T13:28:12.728Z,4.33
2019-04-07T13:31:01.771Z,3.52
2019-04-07T13:34:01.674Z,3.42
2019-04-07T13:36:59.000Z,3.58
2019-04-07T13:39:40.719Z,3.87
2019-04-07T13:42:32.583Z,4.22
2019-04-07T13:45:20.524Z,3.72
2019-04-07T13:48:13.571Z,3.83
2019-04-07T13:51:15.505Z,4.03
2019-04-07T13:54:05.611Z,4.42
2019-04-07T13:56:52.206Z,3.90
2019-04-07T13:59:50.028Z,4.22
2019-04-07T14:02:38.830Z,4.30
2019-04-07T14:05:38.860Z,4.42
2019-04-07T14:08:38.309Z,7.10
2019-04-07T14:11:58.085Z,6.72
2019-04-07T14:14:28.946Z,4.83
2019-04-07T14:17:22.960Z,4.17
2019-04-07T14:20:17.179Z,3.72
2019-04-07T14:23:12.163Z,3.27
2019-04-07T14:26:12.781Z,3.22
2019-04-07T14:28:50.084Z,3.58
2019-04-07T14:31:53.428Z,3.42
2019-04-07T14:34:41.144Z,5.97
2019-04-07T14:37:20.365Z,3.75
2019-04-07T14:40:07.199Z,3.15
2019-04-07T14:42:51.822Z,3.08
2019-04-07T14:45:40.640Z,3.10
2019-04-07T14:48:45.647Z,2.92
2019-04-07T14:51:42.798Z,3.47
2019-04-07T14:54:34.597Z,2.83
2019-04-07T14:57:20.117Z,3.02
2019-04-07T15:00:17.333Z,3.00
2019-04-07T15:02:49.769Z,3.30
2019-04-07T15:05:25.310Z,2.98
2019-04-07T15:08:14.074Z,4.30
2019-04-07T15:10:52.703Z,3.70
2019-04-07T15:13:28.101Z,3.80
2019-04-07T15:16:01.086Z,6.00
2019-04-07T15:18:30.267Z,6.12
2019-04-07T15:20:59.523Z,4.00
2019-04-07T15:23:30.964Z,3.52
2019-04-07T15:26:00.182Z,4.40
2019-04-07T15:28:30.674Z,3.92
2019-04-07T15:31:00.916Z,3.27
2019-04-07T15:33:33.929Z,3.55
2019-04-07T15:36:04.103Z,3.17
2019-04-07T15:38:34.524Z,4.55
2019-04-07T15:41:07.626Z,7.92
2019-04-07T15:43:35.285Z,4.85
2019-04-07T15:46:05.393Z,3.60
2019-04-07T15:48:36.549Z,3.83
2019-04-07T15:51:05.796Z,3.08
2019-04-07T15:53:35.137Z,3.33
2019-04-07T15:56:06.571Z,3.50
2019-04-07T15:58:35.333Z,4.37
2019-04-07T16:01:08.650Z,4.77
2019-04-07T16:03:36.762Z,6.70
2019-04-07T16:06:06.085Z,9.43
2019-04-07T16:08:38.296Z,11.03
2019-04-07T16:11:08.034Z,10.87
2019-04-07T16:13:39.089Z,10.53
2019-04-07T16:16:08.521Z,10.17
2019-04-07T16:18:42.940Z,10.50
2019-04-07T16:21:21.661Z,10.60
2019-04-07T16:23:54.035Z,11.40
2019-04-07T16:26:35.893Z,11.27
2019-04-07T16:29:07.776Z,10.97
2019-04-07T16:31:36.555Z,10.37
2019-04-07T16:34:07.731Z,10.87
2019-04-07T16:36:36.656Z,11.17
2019-04-07T16:39:09.582Z,10.67
2019-04-07T16:41:39.290Z,10.97
2019-04-07T16:44:10.568Z,11.20
2019-04-07T16:46:40.641Z,10.87
2019-04-07T16:49:13.214Z,10.03
2019-04-07T16:51:40.960Z,10.43
2019-04-07T16:54:11.406Z,18.70
2019-04-07T16:56:41.407Z,13.93
2019-04-07T16:59:10.651Z,12.60
2019-04-07T17:01:39.981Z,11.77
2019-04-07T17:04:09.473Z,12.27
2019-04-07T17:06:39.027Z,11.37
2019-04-07T17:09:17.769Z,10.63
2019-04-07T17:11:47.560Z,11.73
2019-04-07T17:14:16.775Z,10.97
2019-04-07T17:16:45.978Z,12.17
2019-04-07T17:19:16.179Z,12.33
2019-04-07T17:21:45.440Z,12.27
2019-04-07T17:24:14.734Z,11.80
2019-04-07T17:26:43.948Z,12.13
2019-04-07T17:29:17.073Z,11.57
2019-04-07T17:31:45.579Z,12.27
2019-04-07T17:34:15.619Z,12.33
2019-04-07T17:36:48.530Z,13.30
2019-04-07T17:39:38.487Z,12.63
2019-04-07T17:42:12.206Z,12.37
2019-04-07T17:45:13.127Z,13.10
2019-04-07T17:48:02.877Z,14.63
2019-04-07T17:50:49.585Z,13.60
2019-04-07T17:53:45.350Z,13.00
2019-04-07T17:56:34.530Z,12.33
2019-04-07T17:59:19.704Z,12.37
2019-04-07T18:02:10.894Z,12.13
2019-04-07T18:04:53.565Z,12.70
2019-04-07T18:07:39.477Z,11.47
2019-04-07T18:10:23.766Z,12.57
2019-04-07T18:13:21.726Z,12.20
2019-04-07T18:16:07.079Z,12.73
2019-04-07T18:18:56.208Z,11.47
2019-04-07T18:21:47.228Z,12.97
2019-04-07T18:24:38.571Z,12.73
2019-04-07T18:27:23.273Z,13.07
2019-04-07T18:30:14.761Z,13.60
2019-04-07T18:32:58.643Z,12.83
2019-04-07T18:35:47.043Z,13.43
2019-04-07T18:38:34.573Z,12.83
2019-04-07T18:41:19.782Z,12.67
2019-04-07T18:44:08.950Z,12.87
2019-04-07T18:46:57.258Z,13.30
2019-04-07T18:49:35.455Z,13.97
2019-04-07T18:52:23.019Z,14.83
2019-04-07T18:55:10.973Z,15.37
2019-04-07T18:57:58.521Z,13.27
2019-04-07T19:00:45.609Z,13.70
2019-04-07T19:03:40.629Z,12.20
2019-04-07T19:06:28.780Z,11.83
2019-04-07T19:09:35.732Z,10.33
2019-04-07T19:12:23.129Z,8.53
2019-04-07T19:15:17.747Z,8.27
2019-04-07T19:18:08.671Z,7.50
2019-04-07T19:20:57.735Z,6.13
2019-04-07T19:23:36.245Z,6.53
2019-04-07T19:26:34.704Z,5.83
2019-04-07T19:29:26.288Z,6.53
2019-04-07T19:32:29.581Z,6.63
2019-04-07T19:35:11.650Z,6.43
2019-04-07T19:38:06.810Z,5.97
2019-04-07T19:40:49.340Z,6.33
2019-04-07T19:43:37.123Z,6.23
2019-04-07T19:46:28.807Z,5.63
2019-04-07T19:49:27.534Z,5.43
2019-04-07T19:52:14.823Z,5.37
2019-04-07T19:55:03.692Z,4.83
2019-04-07T19:57:50.982Z,5.40
2019-04-07T20:00:56.765Z,6.37
2019-04-07T20:03:37.789Z,6.00
2019-04-07T20:06:23.135Z,5.20
2019-04-07T20:09:11.179Z,5.83
2019-04-07T20:12:00.541Z,5.27
2019-04-07T20:14:55.234Z,5.67
2019-04-07T20:17:32.316Z,5.33
2019-04-07T20:20:19.535Z,4.90
2019-04-07T20:23:16.060Z,5.57
2019-04-07T20:26:13.583Z,5.93
2019-04-07T20:28:48.782Z,5.10
2019-04-07T20:31:38.633Z,4.97
2019-04-07T20:34:21.077Z,5.57
2019-04-07T20:37:23.803Z,5.40
2019-04-07T20:40:09.135Z,4.93
2019-04-07T20:42:48.451Z,6.00
2019-04-07T20:45:33.462Z,6.10
2019-04-07T20:48:33.358Z,5.30
2019-04-07T20:51:19.086Z,5.70
2019-04-07T20:53:55.691Z,5.17
2019-04-07T20:56:44.955Z,5.30
2019-04-07T20:59:31.404Z,5.40
2019-04-07T21:02:35.027Z,5.43
2019-04-07T21:05:22.938Z,4.50
2019-04-07T21:08:02.700Z,5.30
2019-04-07T21:10:49.720Z,4.83
2019-04-07T21:13:37.494Z,5.33
2019-04-07T21:16:28.260Z,5.27
2019-04-07T21:19:06.789Z,4.67
2019-04-07T21:21:53.762Z,5.30
2019-04-07T21:24:45.540Z,5.63
2019-04-07T21:27:43.967Z,5.53
2019-04-07T21:30:42.946Z,4.67
2019-04-07T21:33:44.197Z,5.00
2019-04-07T21:36:37.625Z,5.17
2019-04-07T21:39:16.536Z,5.17
2019-04-07T21:42:21.843Z,5.57
2019-04-07T21:45:10.407Z,5.00
2019-04-07T21:47:46.095Z,4.70
2019-04-07T21:50:28.194Z,5.30
2019-04-07T21:53:04.799Z,5.13
2019-04-07T21:55:53.282Z,5.43
2019-04-07T21:58:54.021Z,5.27
2019-04-07T22:01:50.827Z,5.70
2019-04-07T22:04:34.122Z,5.53
2019-04-07T22:07:22.309Z,5.93
2019-04-07T22:09:54.659Z,5.40
2019-04-07T22:12:28.033Z,5.43
2019-04-07T22:14:55.665Z,5.30
2019-04-07T22:17:24.901Z,5.60
2019-04-07T22:19:54.326Z,5.57
2019-04-07T22:22:26.583Z,5.30
2019-04-07T22:24:55.948Z,5.60
2019-04-07T22:27:27.251Z,5.80
2019-04-07T22:29:56.681Z,5.67
2019-04-07T22:32:26.786Z,5.57
2019-04-07T22:34:55.935Z,5.83
2019-04-07T22:37:26.076Z,5.40
2019-04-07T22:39:57.189Z,5.70
2019-04-07T22:42:26.110Z,5.00
2019-04-07T22:44:56.033Z,5.63
2019-04-07T22:47:25.484Z,5.80
2019-04-07T22:49:54.610Z,5.67
2019-04-07T22:52:23.785Z,5.83
2019-04-07T22:54:52.943Z,5.23
2019-04-07T22:57:22.036Z,5.10
2019-04-07T22:59:51.175Z,5.80
2019-04-07T23:02:20.327Z,5.63
2019-04-07T23:04:50.288Z,5.30
2019-04-07T23:07:20.179Z,5.47
2019-04-07T23:09:49.622Z,5.20
2019-04-07T23:12:18.971Z,6.33
2019-04-07T23:14:48.436Z,5.63
2019-04-07T23:17:17.847Z,5.50
2019-04-07T23:19:46.982Z,5.80
2019-04-07T23:22:16.201Z,5.60
2019-04-07T23:24:45.503Z,6.07
2019-04-07T23:27:14.635Z,6.13
2019-04-07T23:29:44.369Z,4.90
2019-04-07T23:32:13.508Z,5.87
2019-04-07T23:34:43.622Z,5.97
2019-04-07T23:37:12.791Z,6.70
2019-04-07T23:39:41.958Z,5.50
2019-04-07T23:42:11.008Z,6.33
2019-04-07T23:44:40.121Z,6.27
2019-04-07T23:47:09.625Z,6.10
2019-04-07T23:49:38.920Z,6.20
2019-04-07T23:52:08.897Z,6.17
2019-04-07T23:54:38.580Z,5.97
2019-04-07T23:57:07.821Z,6.77
2019-04-07T23:59:37.186Z,7.67
